createdAt,value
2019-04-03T00:00:57.524Z,7.34
2019-04-03T00:01:57.499Z,7.34
2019-04-03T00:02:57.501Z,7.33
2019-04-03T00:03:57.543Z,7.34
2019-04-03T00:04:57.487Z,7.36
2019-04-03T00:05:57.474Z,7.34
2019-04-03T00:06:57.483Z,7.33
2019-04-03T00:07:57.433Z,7.33
2019-04-03T00:08:57.462Z,7.30
2019-04-03T00:09:57.526Z,7.30
2019-04-03T00:10:57.403Z,7.27
2019-04-03T00:11:57.522Z,7.26
2019-04-03T00:12:57.389Z,7.26
2019-04-03T00:13:57.381Z,7.24
2019-04-03T00:14:57.395Z,7.26
2019-04-03T00:15:57.372Z,7.21
2019-04-03T00:16:57.349Z,7.21
2019-04-03T00:17:57.351Z,7.21
2019-04-03T00:18:57.328Z,7.19
2019-04-03T00:19:57.318Z,7.16
2019-04-03T00:20:57.328Z,7.16
2019-04-03T00:21:57.289Z,7.15
2019-04-03T00:22:57.359Z,7.14
2019-04-03T00:23:57.271Z,7.12
2019-04-03T00:24:57.264Z,7.11
2019-04-03T00:25:57.245Z,7.07
2019-04-03T00:26:57.234Z,7.05
2019-04-03T00:27:57.235Z,6.99
2019-04-03T00:28:57.213Z,7.00
2019-04-03T00:29:57.223Z,6.97
2019-04-03T00:30:57.194Z,6.96
2019-04-03T00:31:57.182Z,6.93
2019-04-03T00:32:57.173Z,6.93
2019-04-03T00:33:57.172Z,6.89
2019-04-03T00:34:57.230Z,6.89
2019-04-03T00:35:57.142Z,6.83
2019-04-03T00:36:57.140Z,6.83
2019-04-03T00:37:57.118Z,6.82
2019-04-03T00:38:57.112Z,6.78
2019-04-03T00:39:57.099Z,6.78
2019-04-03T00:40:57.101Z,6.73
2019-04-03T00:41:57.085Z,6.72
2019-04-03T00:42:57.100Z,6.72
2019-04-03T00:43:57.047Z,6.68
2019-04-03T00:44:57.217Z,6.69
2019-04-03T00:45:57.038Z,6.69
2019-04-03T00:46:57.035Z,6.68
2019-04-03T00:47:57.027Z,6.69
2019-04-03T00:48:57.707Z,6.72
2019-04-03T00:49:57.134Z,6.72
2019-04-03T00:50:57.607Z,6.69
2019-04-03T00:51:57.689Z,6.72
2019-04-03T00:52:57.811Z,6.72
2019-04-03T00:53:57.993Z,6.75
2019-04-03T00:54:57.152Z,6.76
2019-04-03T00:55:57.040Z,6.78
2019-04-03T00:56:57.055Z,6.82
2019-04-03T00:57:57.123Z,6.89
2019-04-03T00:58:56.910Z,6.90
2019-04-03T00:59:56.994Z,6.91
2019-04-03T01:00:56.891Z,6.94
2019-04-03T01:01:57.177Z,6.96
2019-04-03T01:02:58.995Z,6.94
2019-04-03T01:03:58.877Z,6.96
2019-04-03T01:04:58.421Z,6.96
2019-04-03T01:05:58.407Z,6.97
2019-04-03T01:06:58.519Z,6.97
2019-04-03T01:07:59.218Z,6.96
2019-04-03T01:08:57.760Z,6.96
2019-04-03T01:09:57.796Z,6.93
2019-04-03T01:10:56.909Z,6.94
2019-04-03T01:11:56.783Z,6.94
2019-04-03T01:12:56.784Z,6.93
2019-04-03T01:13:56.777Z,6.93
2019-04-03T01:14:56.726Z,6.91
2019-04-03T01:15:56.719Z,6.90
2019-04-03T01:16:56.702Z,6.90
2019-04-03T01:17:56.692Z,6.87
2019-04-03T01:18:56.692Z,6.83
2019-04-03T01:19:56.775Z,6.79
2019-04-03T01:20:56.675Z,6.78
2019-04-03T01:21:56.660Z,6.71
2019-04-03T01:22:56.642Z,6.69
2019-04-03T01:23:56.629Z,6.64
2019-04-03T01:24:56.619Z,6.64
2019-04-03T01:25:56.630Z,6.61
2019-04-03T01:26:56.598Z,6.60
2019-04-03T01:27:56.599Z,6.55
2019-04-03T01:28:56.600Z,6.51
2019-04-03T01:29:56.568Z,6.46
2019-04-03T01:30:56.590Z,6.43
2019-04-03T01:31:56.546Z,6.39
2019-04-03T01:32:56.562Z,6.38
2019-04-03T01:33:56.545Z,6.35
2019-04-03T01:34:56.514Z,6.32
2019-04-03T01:35:56.530Z,6.32
2019-04-03T01:36:56.503Z,6.27
2019-04-03T01:37:56.476Z,6.28
2019-04-03T01:38:56.464Z,6.27
2019-04-03T01:39:56.519Z,6.28
2019-04-03T01:40:56.442Z,6.27
2019-04-03T01:41:56.452Z,6.27
2019-04-03T01:42:56.513Z,6.24
2019-04-03T01:43:56.424Z,6.24
2019-04-03T01:44:56.450Z,6.21
2019-04-03T01:45:56.966Z,6.20
2019-04-03T01:46:57.749Z,6.20
2019-04-03T01:47:58.184Z,6.19
2019-04-03T01:48:56.756Z,6.17
2019-04-03T01:49:56.841Z,6.16
2019-04-03T01:50:57.772Z,6.13
2019-04-03T01:51:56.367Z,6.13
2019-04-03T01:52:56.317Z,6.10
2019-04-03T01:53:56.318Z,6.10
2019-04-03T01:54:56.308Z,6.10
2019-04-03T01:55:56.308Z,6.10
2019-04-03T01:56:56.294Z,6.11
2019-04-03T01:57:56.264Z,6.11
2019-04-03T01:58:56.253Z,6.14
2019-04-03T01:59:56.253Z,6.13
2019-04-03T02:00:56.233Z,6.11
2019-04-03T02:01:56.223Z,6.08
2019-04-03T02:02:56.219Z,6.08
2019-04-03T02:03:56.209Z,6.08
2019-04-03T02:04:56.181Z,6.06
2019-04-03T02:05:56.178Z,6.03
2019-04-03T02:06:56.171Z,6.01
2019-04-03T02:07:56.179Z,6.02
2019-04-03T02:08:56.151Z,6.01
2019-04-03T02:09:56.139Z,5.96
2019-04-03T02:10:56.152Z,5.93
2019-04-03T02:11:56.128Z,5.88
2019-04-03T02:12:56.117Z,5.84
2019-04-03T02:13:56.108Z,5.81
2019-04-03T02:14:56.099Z,5.81
2019-04-03T02:15:56.098Z,5.81
2019-04-03T02:16:56.065Z,5.78
2019-04-03T02:17:56.077Z,5.77
2019-04-03T02:18:56.051Z,5.74
2019-04-03T02:19:56.913Z,5.73
2019-04-03T02:20:57.755Z,5.74
2019-04-03T02:21:58.214Z,5.73
2019-04-03T02:22:56.015Z,5.69
2019-04-03T02:23:55.995Z,5.69
2019-04-03T02:24:55.993Z,5.66
2019-04-03T02:25:55.972Z,5.65
2019-04-03T02:26:55.991Z,5.62
2019-04-03T02:27:55.972Z,5.59
2019-04-03T02:28:55.940Z,5.56
2019-04-03T02:29:56.064Z,5.56
2019-04-03T02:30:55.921Z,5.52
2019-04-03T02:31:56.020Z,5.49
2019-04-03T02:32:57.338Z,5.49
2019-04-03T02:33:56.234Z,5.47
2019-04-03T02:34:55.879Z,5.41
2019-04-03T02:35:55.858Z,5.40
2019-04-03T02:36:55.847Z,5.38
2019-04-03T02:37:55.868Z,5.35
2019-04-03T02:38:55.837Z,5.33
2019-04-03T02:39:59.080Z,5.30
2019-04-03T02:40:56.022Z,5.27
2019-04-03T02:41:55.809Z,5.27
2019-04-03T02:42:55.814Z,5.26
2019-04-03T02:43:55.794Z,5.26
2019-04-03T02:44:55.763Z,5.26
2019-04-03T02:45:56.824Z,5.23
2019-04-03T02:46:59.507Z,5.19
2019-04-03T02:47:56.741Z,5.19
2019-04-03T02:48:55.758Z,5.19
2019-04-03T02:49:55.819Z,5.15
2019-04-03T02:50:55.702Z,5.14
2019-04-03T02:51:55.705Z,5.14
2019-04-03T02:52:58.041Z,5.14
2019-04-03T02:53:55.701Z,5.09
2019-04-03T02:54:55.669Z,5.09
2019-04-03T02:55:55.659Z,5.05
2019-04-03T02:56:55.642Z,5.04
2019-04-03T02:57:55.627Z,5.04
2019-04-03T02:58:55.733Z,5.02
2019-04-03T02:59:57.903Z,5.02
2019-04-03T03:00:55.615Z,5.02
2019-04-03T03:01:55.598Z,4.97
2019-04-03T03:02:55.606Z,4.99
2019-04-03T03:03:55.576Z,5.01
2019-04-03T03:04:55.683Z,4.96
2019-04-03T03:05:59.019Z,4.94
2019-04-03T03:06:55.556Z,4.96
2019-04-03T03:07:55.522Z,4.94
2019-04-03T03:08:55.532Z,4.93
2019-04-03T03:09:55.503Z,4.93
2019-04-03T03:10:55.492Z,4.91
2019-04-03T03:11:56.899Z,4.93
2019-04-03T03:12:55.473Z,4.90
2019-04-03T03:13:55.490Z,4.88
2019-04-03T03:14:55.452Z,4.88
2019-04-03T03:15:55.443Z,4.86
2019-04-03T03:16:55.668Z,4.79
2019-04-03T03:17:56.117Z,4.79
2019-04-03T03:18:57.567Z,4.83
2019-04-03T03:19:55.406Z,4.79
2019-04-03T03:20:55.391Z,4.75
2019-04-03T03:21:55.376Z,4.75
2019-04-03T03:22:55.376Z,4.72
2019-04-03T03:23:56.076Z,4.69
2019-04-03T03:24:55.350Z,4.67
2019-04-03T03:25:55.334Z,4.65
2019-04-03T03:26:55.346Z,4.65
2019-04-03T03:27:55.314Z,4.67
2019-04-03T03:28:55.613Z,4.67
2019-04-03T03:29:58.566Z,4.67
2019-04-03T03:31:01.417Z,4.64
2019-04-03T03:32:08.131Z,4.61
2019-04-03T03:33:21.670Z,4.62
2019-04-03T03:34:00.902Z,4.62
2019-04-03T03:35:07.566Z,4.61
2019-04-03T03:35:56.478Z,4.62
2019-04-03T03:37:00.616Z,4.62
2019-04-03T03:37:56.286Z,4.65
2019-04-03T03:38:55.374Z,4.64
2019-04-03T03:39:55.382Z,4.67
2019-04-03T03:40:55.178Z,4.64
2019-04-03T03:41:57.533Z,4.65
2019-04-03T03:42:55.157Z,4.61
2019-04-03T03:43:55.218Z,4.62
2019-04-03T03:44:55.316Z,4.61
2019-04-03T03:45:55.122Z,4.59
2019-04-03T03:46:55.136Z,4.59
2019-04-03T03:47:55.119Z,4.61
2019-04-03T03:48:55.083Z,4.57
2019-04-03T03:49:55.117Z,4.59
2019-04-03T03:50:57.213Z,4.59
2019-04-03T03:51:55.062Z,4.57
2019-04-03T03:52:55.063Z,4.57
2019-04-03T03:53:55.623Z,4.54
2019-04-03T03:54:55.032Z,4.54
2019-04-03T03:55:58.402Z,4.53
2019-04-03T03:56:55.009Z,4.51
2019-04-03T03:57:55.092Z,4.51
2019-04-03T03:58:55.540Z,4.53
2019-04-03T03:59:54.969Z,4.56
2019-04-03T04:00:57.956Z,4.51
2019-04-03T04:01:55.125Z,4.51
2019-04-03T04:02:55.299Z,4.51
2019-04-03T04:03:54.959Z,4.54
2019-04-03T04:04:54.940Z,4.49
2019-04-03T04:05:56.674Z,4.53
2019-04-03T04:06:55.882Z,4.50
2019-04-03T04:07:54.885Z,4.51
2019-04-03T04:08:54.885Z,4.51
2019-04-03T04:09:55.240Z,4.53
2019-04-03T04:10:58.144Z,4.50
2019-04-03T04:11:54.842Z,4.51
2019-04-03T04:12:54.834Z,4.51
2019-04-03T04:13:54.824Z,4.51
2019-04-03T04:14:56.594Z,4.53
2019-04-03T04:15:55.139Z,4.49
2019-04-03T04:16:54.799Z,4.47
2019-04-03T04:17:54.785Z,4.47
2019-04-03T04:18:56.984Z,4.47
2019-04-03T04:19:54.778Z,4.43
2019-04-03T04:20:54.874Z,4.44
2019-04-03T04:21:54.797Z,4.42
2019-04-03T04:22:55.095Z,4.42
2019-04-03T04:23:55.989Z,4.42
2019-04-03T04:24:54.736Z,4.39
2019-04-03T04:25:54.715Z,4.39
2019-04-03T04:26:54.684Z,4.42
2019-04-03T04:27:54.683Z,4.36
2019-04-03T04:28:54.663Z,4.36
2019-04-03T04:29:54.654Z,4.35
2019-04-03T04:30:54.643Z,4.35
2019-04-03T04:31:54.773Z,4.36
2019-04-03T04:32:54.612Z,4.36
2019-04-03T04:33:54.618Z,4.36
2019-04-03T04:34:54.682Z,4.35
2019-04-03T04:35:54.591Z,4.34
2019-04-03T04:36:55.379Z,4.35
2019-04-03T04:37:55.962Z,4.34
2019-04-03T04:38:57.335Z,4.34
2019-04-03T04:39:54.674Z,4.34
2019-04-03T04:40:54.530Z,4.35
2019-04-03T04:41:54.806Z,4.36
2019-04-03T04:42:54.570Z,4.39
2019-04-03T04:43:54.496Z,4.39
2019-04-03T04:44:54.597Z,4.38
2019-04-03T04:45:54.476Z,4.39
2019-04-03T04:46:54.477Z,4.39
2019-04-03T04:47:54.496Z,4.39
2019-04-03T04:48:54.444Z,4.38
2019-04-03T04:49:54.435Z,4.38
2019-04-03T04:50:55.210Z,4.35
2019-04-03T04:51:56.528Z,4.34
2019-04-03T04:52:54.578Z,4.31
2019-04-03T04:53:54.451Z,4.31
2019-04-03T04:54:54.385Z,4.29
2019-04-03T04:55:54.395Z,4.28
2019-04-03T04:56:54.382Z,4.26
2019-04-03T04:57:54.371Z,4.25
2019-04-03T04:58:54.340Z,4.26
2019-04-03T04:59:54.328Z,4.28
2019-04-03T05:00:54.543Z,4.28
2019-04-03T05:01:54.308Z,4.29
2019-04-03T05:02:54.404Z,4.29
2019-04-03T05:03:54.589Z,4.32
2019-04-03T05:04:55.882Z,4.31
2019-04-03T05:05:57.114Z,4.32
2019-04-03T05:06:54.255Z,4.32
2019-04-03T05:07:54.244Z,4.31
2019-04-03T05:08:54.665Z,4.34
2019-04-03T05:09:54.249Z,4.36
2019-04-03T05:10:54.225Z,4.38
2019-04-03T05:11:54.204Z,4.42
2019-04-03T05:12:54.202Z,4.39
2019-04-03T05:13:54.413Z,4.42
2019-04-03T05:14:54.429Z,4.42
2019-04-03T05:15:54.661Z,4.42
2019-04-03T05:16:55.827Z,4.44
2019-04-03T05:17:54.152Z,4.43
2019-04-03T05:18:54.121Z,4.39
2019-04-03T05:19:54.111Z,4.36
2019-04-03T05:20:54.118Z,4.36
2019-04-03T05:21:54.386Z,4.34
2019-04-03T05:22:55.339Z,4.38
2019-04-03T05:23:56.087Z,4.36
2019-04-03T05:24:54.122Z,4.36
2019-04-03T05:25:54.066Z,4.42
2019-04-03T05:26:54.069Z,4.43
2019-04-03T05:27:54.027Z,4.44
2019-04-03T05:28:57.498Z,4.44
2019-04-03T05:29:54.014Z,4.46
2019-04-03T05:30:53.993Z,4.50
2019-04-03T05:31:54.084Z,4.50
2019-04-03T05:32:53.985Z,4.54
2019-04-03T05:33:53.982Z,4.51
2019-04-03T05:34:53.970Z,4.53
2019-04-03T05:35:53.951Z,4.56
2019-04-03T05:36:53.942Z,4.59
2019-04-03T05:37:53.920Z,4.62
2019-04-03T05:38:54.085Z,4.65
2019-04-03T05:39:55.639Z,4.68
2019-04-03T05:40:56.114Z,4.72
2019-04-03T05:41:53.877Z,4.72
2019-04-03T05:42:53.909Z,4.79
2019-04-03T05:43:53.859Z,4.80
2019-04-03T05:44:54.020Z,4.83
2019-04-03T05:45:54.087Z,4.87
2019-04-03T05:46:53.827Z,4.90
2019-04-03T05:47:53.823Z,4.91
2019-04-03T05:48:53.828Z,4.94
2019-04-03T05:49:55.792Z,4.93
2019-04-03T05:50:53.792Z,4.97
2019-04-03T05:51:53.772Z,5.01
2019-04-03T05:52:53.779Z,5.04
2019-04-03T05:53:54.493Z,5.08
2019-04-03T05:54:53.754Z,5.09
2019-04-03T05:55:53.944Z,5.12
2019-04-03T05:56:53.788Z,5.19
2019-04-03T05:57:53.711Z,5.17
2019-04-03T05:58:55.946Z,5.26
2019-04-03T06:00:00.669Z,5.29
2019-04-03T06:01:04.224Z,5.37
2019-04-03T06:01:54.694Z,5.41
2019-04-03T06:02:54.099Z,5.47
2019-04-03T06:03:53.646Z,5.52
2019-04-03T06:04:53.654Z,5.62
2019-04-03T06:05:53.620Z,5.63
2019-04-03T06:06:53.638Z,5.69
2019-04-03T06:07:53.758Z,5.70
2019-04-03T06:08:56.351Z,5.80
2019-04-03T06:09:55.102Z,5.84
2019-04-03T06:10:53.565Z,5.90
2019-04-03T06:11:53.732Z,5.84
2019-04-03T06:12:53.643Z,5.83
2019-04-03T06:13:53.544Z,5.84
2019-04-03T06:14:53.523Z,5.96
2019-04-03T06:15:53.905Z,6.19
2019-04-03T06:16:55.474Z,6.50
2019-04-03T06:17:55.120Z,6.65
2019-04-03T06:18:53.494Z,6.57
2019-04-03T06:19:53.480Z,6.45
2019-04-03T06:20:53.460Z,6.43
2019-04-03T06:21:53.477Z,6.55
2019-04-03T06:22:53.459Z,6.42
2019-04-03T06:23:53.506Z,6.35
2019-04-03T06:24:55.836Z,6.27
2019-04-03T06:25:53.418Z,6.21
2019-04-03T06:26:53.416Z,6.16
2019-04-03T06:27:53.409Z,6.11
2019-04-03T06:28:53.375Z,6.14
2019-04-03T06:29:55.328Z,6.17
2019-04-03T06:30:55.502Z,6.24
2019-04-03T06:31:53.355Z,6.33
2019-04-03T06:32:55.002Z,6.45
2019-04-03T06:33:53.332Z,6.58
2019-04-03T06:34:53.343Z,6.69
2019-04-03T06:35:53.303Z,6.73
2019-04-03T06:36:53.546Z,6.78
2019-04-03T06:37:53.622Z,6.89
2019-04-03T06:38:54.288Z,6.81
2019-04-03T06:39:53.431Z,6.65
2019-04-03T06:40:53.253Z,6.58
2019-04-03T06:41:53.271Z,6.51
2019-04-03T06:42:53.230Z,6.53
2019-04-03T06:43:54.293Z,6.53
2019-04-03T06:44:54.066Z,6.45
2019-04-03T06:45:53.218Z,6.42
2019-04-03T06:46:54.821Z,6.43
2019-04-03T06:47:53.365Z,6.40
2019-04-03T06:48:55.242Z,6.45
2019-04-03T06:49:53.147Z,6.40
2019-04-03T06:50:53.137Z,6.35
2019-04-03T06:51:53.204Z,6.42
2019-04-03T06:52:53.724Z,6.39
2019-04-03T06:53:53.115Z,6.50
2019-04-03T06:54:53.125Z,6.57
2019-04-03T06:55:53.201Z,6.65
2019-04-03T06:56:53.166Z,6.68
2019-04-03T06:57:53.178Z,6.69
2019-04-03T06:58:53.054Z,6.72
2019-04-03T06:59:53.416Z,6.82
2019-04-03T07:00:54.743Z,7.12
2019-04-03T07:01:53.605Z,7.60
2019-04-03T07:02:53.134Z,7.84
2019-04-03T07:03:53.010Z,7.86
2019-04-03T07:04:52.991Z,7.82
2019-04-03T07:05:53.221Z,8.18
2019-04-03T07:06:55.383Z,8.22
2019-04-03T07:07:53.574Z,8.25
2019-04-03T07:08:52.940Z,8.46
2019-04-03T07:09:52.945Z,8.47
2019-04-03T07:10:55.869Z,8.50
2019-04-03T07:11:52.937Z,8.46
2019-04-03T07:12:52.907Z,8.32
2019-04-03T07:13:53.905Z,8.25
2019-04-03T07:14:53.168Z,8.25
2019-04-03T07:15:53.087Z,8.18
2019-04-03T07:16:53.582Z,8.18
2019-04-03T07:17:52.856Z,8.07
2019-04-03T07:18:52.844Z,8.06
2019-04-03T07:19:53.110Z,8.07
2019-04-03T07:20:52.825Z,8.07
2019-04-03T07:21:55.126Z,8.10
2019-04-03T07:22:53.055Z,8.10
2019-04-03T07:23:52.792Z,7.95
2019-04-03T07:24:52.793Z,7.95
2019-04-03T07:25:52.771Z,7.95
2019-04-03T07:26:52.820Z,7.92
2019-04-03T07:27:52.911Z,7.88
2019-04-03T07:28:52.750Z,7.84
2019-04-03T07:29:52.729Z,7.82
2019-04-03T07:30:53.906Z,7.86
2019-04-03T07:31:54.795Z,7.92
2019-04-03T07:32:52.722Z,7.81
2019-04-03T07:33:52.690Z,7.70
2019-04-03T07:34:52.667Z,7.60
2019-04-03T07:35:52.658Z,7.55
2019-04-03T07:36:52.760Z,7.50
2019-04-03T07:37:52.744Z,7.44
2019-04-03T07:38:52.650Z,7.47
2019-04-03T07:39:52.626Z,7.55
2019-04-03T07:40:52.850Z,7.71
2019-04-03T07:41:54.124Z,7.86
2019-04-03T07:42:55.631Z,8.00
2019-04-03T07:43:52.645Z,8.04
2019-04-03T07:44:52.562Z,8.20
2019-04-03T07:45:52.562Z,8.32
2019-04-03T07:46:54.743Z,8.60
2019-04-03T07:47:52.532Z,8.85
2019-04-03T07:48:52.533Z,9.04
2019-04-03T07:49:52.513Z,9.32
2019-04-03T07:50:52.510Z,9.56
2019-04-03T07:51:52.501Z,9.62
2019-04-03T07:52:52.482Z,9.60
2019-04-03T07:53:52.648Z,9.45
2019-04-03T07:54:56.452Z,9.01
2019-04-03T07:55:55.016Z,9.15
2019-04-03T07:56:52.451Z,9.42
2019-04-03T07:57:52.426Z,9.41
2019-04-03T07:58:52.448Z,9.65
2019-04-03T07:59:52.433Z,9.95
2019-04-03T08:00:52.529Z,9.91
2019-04-03T08:01:52.481Z,9.56
2019-04-03T08:02:53.147Z,9.12
2019-04-03T08:03:53.372Z,8.93
2019-04-03T08:04:55.689Z,8.73
2019-04-03T08:05:55.883Z,8.70
2019-04-03T08:06:52.345Z,8.76
2019-04-03T08:07:52.322Z,8.83
2019-04-03T08:09:05.601Z,8.79
2019-04-03T08:09:53.303Z,8.64
2019-04-03T08:10:52.316Z,8.58
2019-04-03T08:11:52.363Z,8.55
2019-04-03T08:12:52.264Z,8.55
2019-04-03T08:13:52.287Z,8.47
2019-04-03T08:14:52.285Z,8.50
2019-04-03T08:15:52.373Z,8.91
2019-04-03T08:16:52.222Z,8.86
2019-04-03T08:17:52.220Z,8.78
2019-04-03T08:18:52.496Z,8.61
2019-04-03T08:19:54.287Z,8.60
2019-04-03T08:20:52.181Z,8.64
2019-04-03T08:21:52.475Z,8.64
2019-04-03T08:22:52.158Z,8.67
2019-04-03T08:23:52.263Z,9.17
2019-04-03T08:24:53.719Z,9.24
2019-04-03T08:25:53.998Z,9.34
2019-04-03T08:26:52.374Z,9.58
2019-04-03T08:27:54.540Z,9.68
2019-04-03T08:28:52.090Z,10.06
2019-04-03T08:29:52.106Z,11.03
2019-04-03T08:30:52.284Z,11.20
2019-04-03T08:31:52.085Z,10.62
2019-04-03T08:32:52.100Z,10.83
2019-04-03T08:33:52.043Z,10.13
2019-04-03T08:34:52.119Z,10.31
2019-04-03T08:35:52.024Z,10.70
2019-04-03T08:36:52.029Z,11.17
2019-04-03T08:37:51.992Z,12.03
2019-04-03T08:38:52.002Z,12.62
2019-04-03T08:39:52.179Z,13.29
2019-04-03T08:40:53.427Z,13.51
2019-04-03T08:41:52.027Z,14.57
2019-04-03T08:42:52.242Z,14.86
2019-04-03T08:43:51.933Z,13.14
2019-04-03T08:44:51.950Z,13.16
2019-04-03T08:45:51.921Z,12.29
2019-04-03T08:46:51.985Z,11.62
2019-04-03T08:47:51.882Z,11.20
2019-04-03T08:48:52.736Z,11.19
2019-04-03T08:49:51.868Z,12.67
2019-04-03T08:50:52.162Z,12.03
2019-04-03T08:51:51.896Z,11.45
2019-04-03T08:52:51.859Z,11.48
2019-04-03T08:53:54.050Z,11.67
2019-04-03T08:54:51.852Z,11.49
2019-04-03T08:55:51.846Z,11.36
2019-04-03T08:56:51.871Z,11.13
2019-04-03T08:57:52.464Z,10.80
2019-04-03T08:58:51.795Z,10.47
2019-04-03T08:59:51.783Z,10.43
2019-04-03T09:00:51.765Z,10.38
2019-04-03T09:01:52.182Z,10.25
2019-04-03T09:02:51.744Z,10.10
2019-04-03T09:03:51.977Z,9.96
2019-04-03T09:04:51.824Z,10.06
2019-04-03T09:05:54.301Z,10.16
2019-04-03T09:06:53.658Z,10.22
2019-04-03T09:07:51.841Z,10.04
2019-04-03T09:08:51.678Z,9.91
2019-04-03T09:09:51.897Z,9.83
2019-04-03T09:10:51.640Z,9.83
2019-04-03T09:11:51.631Z,9.81
2019-04-03T09:12:51.682Z,9.78
2019-04-03T09:13:52.752Z,9.77
2019-04-03T09:14:51.598Z,9.77
2019-04-03T09:15:51.588Z,9.74
2019-04-03T09:16:51.579Z,9.75
2019-04-03T09:17:51.672Z,9.80
2019-04-03T09:18:51.570Z,9.83
2019-04-03T09:19:51.559Z,9.78
2019-04-03T09:20:51.537Z,9.85
2019-04-03T09:21:51.793Z,9.93
2019-04-03T09:22:53.940Z,9.99
2019-04-03T09:23:51.549Z,10.10
2019-04-03T09:24:51.487Z,10.20
2019-04-03T09:25:51.550Z,10.13
2019-04-03T09:26:51.475Z,10.01
2019-04-03T09:27:51.455Z,10.09
2019-04-03T09:28:51.527Z,10.07
2019-04-03T09:29:51.708Z,10.11
2019-04-03T09:30:54.015Z,10.09
2019-04-03T09:31:52.459Z,10.14
2019-04-03T09:32:53.190Z,10.18
2019-04-03T09:33:51.449Z,10.26
2019-04-03T09:34:51.489Z,10.43
2019-04-03T09:35:51.370Z,10.54
2019-04-03T09:36:51.404Z,10.58
2019-04-03T09:37:51.352Z,10.62
2019-04-03T09:38:51.432Z,10.73
2019-04-03T09:39:51.586Z,10.83
2019-04-03T09:40:51.561Z,10.72
2019-04-03T09:41:51.309Z,10.72
2019-04-03T09:42:51.597Z,10.63
2019-04-03T09:43:53.406Z,10.65
2019-04-03T09:44:51.299Z,10.88
2019-04-03T09:45:51.549Z,10.84
2019-04-03T09:46:51.314Z,10.78
2019-04-03T09:47:51.238Z,10.70
2019-04-03T09:48:51.605Z,10.54
2019-04-03T09:49:51.246Z,10.35
2019-04-03T09:50:51.205Z,10.32
2019-04-03T09:51:52.110Z,10.34
2019-04-03T09:52:53.998Z,10.35
2019-04-03T09:53:51.392Z,10.42
2019-04-03T09:54:51.165Z,10.47
2019-04-03T09:55:51.215Z,10.60
2019-04-03T09:56:57.941Z,10.65
2019-04-03T09:57:52.947Z,10.62
2019-04-03T09:58:51.122Z,10.65
2019-04-03T09:59:51.126Z,10.78
2019-04-03T10:00:51.103Z,10.94
2019-04-03T10:01:51.335Z,11.03
2019-04-03T10:02:51.918Z,11.13
2019-04-03T10:03:53.427Z,11.23
2019-04-03T10:04:51.171Z,11.17
2019-04-03T10:05:51.059Z,11.01
2019-04-03T10:06:51.039Z,10.84
2019-04-03T10:07:51.029Z,10.78
2019-04-03T10:08:51.012Z,10.94
2019-04-03T10:09:53.779Z,11.06
2019-04-03T10:10:51.147Z,11.05
2019-04-03T10:11:52.489Z,10.93
2019-04-03T10:12:53.613Z,10.84
2019-04-03T10:13:51.043Z,10.90
2019-04-03T10:14:50.966Z,10.86
2019-04-03T10:15:50.955Z,10.87
2019-04-03T10:16:50.925Z,10.94
2019-04-03T10:17:50.923Z,10.90
2019-04-03T10:18:50.941Z,10.84
2019-04-03T10:19:50.914Z,10.70
2019-04-03T10:20:50.890Z,10.57
2019-04-03T10:21:52.875Z,10.44
2019-04-03T10:22:50.869Z,10.44
2019-04-03T10:23:51.044Z,10.54
2019-04-03T10:24:50.899Z,10.42
2019-04-03T10:25:52.962Z,10.28
2019-04-03T10:26:50.821Z,10.13
2019-04-03T10:27:50.979Z,10.13
2019-04-03T10:28:50.793Z,10.16
2019-04-03T10:29:51.154Z,10.29
2019-04-03T10:30:52.889Z,10.42
2019-04-03T10:31:50.772Z,10.49
2019-04-03T10:32:50.752Z,10.62
2019-04-03T10:33:50.811Z,10.73
2019-04-03T10:34:50.768Z,10.81
2019-04-03T10:35:51.460Z,10.78
2019-04-03T10:36:50.708Z,10.86
2019-04-03T10:37:50.843Z,10.87
2019-04-03T10:38:50.687Z,10.70
2019-04-03T10:39:52.725Z,10.57
2019-04-03T10:40:50.951Z,10.52
2019-04-03T10:41:50.713Z,10.49
2019-04-03T10:42:50.646Z,10.60
2019-04-03T10:43:50.635Z,10.62
2019-04-03T10:44:50.627Z,10.60
2019-04-03T10:45:50.638Z,10.55
2019-04-03T10:46:50.781Z,10.57
2019-04-03T10:47:50.605Z,10.68
2019-04-03T10:48:50.583Z,10.75
2019-04-03T10:49:50.565Z,10.75
2019-04-03T10:50:50.589Z,10.65
2019-04-03T10:51:50.654Z,10.62
2019-04-03T10:52:50.552Z,10.60
2019-04-03T10:53:51.439Z,10.65
2019-04-03T10:54:50.548Z,10.72
2019-04-03T10:55:50.514Z,10.66
2019-04-03T10:56:50.490Z,10.46
2019-04-03T10:57:50.490Z,10.44
2019-04-03T10:58:51.012Z,10.43
2019-04-03T10:59:54.358Z,10.51
2019-04-03T11:00:50.472Z,10.60
2019-04-03T11:01:50.472Z,10.68
2019-04-03T11:02:50.780Z,10.70
2019-04-03T11:03:50.430Z,10.76
2019-04-03T11:04:50.428Z,10.76
2019-04-03T11:05:50.634Z,10.69
2019-04-03T11:06:50.479Z,10.52
2019-04-03T11:07:51.409Z,10.36
2019-04-03T11:08:50.375Z,10.09
2019-04-03T11:09:50.353Z,9.81
2019-04-03T11:10:50.696Z,9.56
2019-04-03T11:11:50.335Z,9.35
2019-04-03T11:12:50.356Z,9.15
2019-04-03T11:13:50.314Z,8.93
2019-04-03T11:14:50.470Z,8.70
2019-04-03T11:15:50.443Z,8.43
2019-04-03T11:16:50.422Z,8.22
2019-04-03T11:17:50.524Z,8.12
2019-04-03T11:18:58.525Z,8.00
2019-04-03T11:19:51.261Z,7.96
2019-04-03T11:20:50.249Z,7.96
2019-04-03T11:21:50.221Z,8.07
2019-04-03T11:22:50.593Z,8.18
2019-04-03T11:23:50.236Z,8.34
2019-04-03T11:24:50.955Z,8.57
2019-04-03T11:25:50.249Z,8.67
2019-04-03T11:26:51.767Z,8.85
2019-04-03T11:27:50.158Z,9.01
2019-04-03T11:28:50.343Z,9.08
2019-04-03T11:29:50.473Z,9.19
2019-04-03T11:30:52.874Z,9.30
2019-04-03T11:31:50.134Z,9.40
2019-04-03T11:32:50.483Z,9.52
2019-04-03T11:33:51.416Z,9.63
2019-04-03T11:34:53.619Z,9.68
2019-04-03T11:35:52.284Z,9.75
2019-04-03T11:36:50.389Z,9.86
2019-04-03T11:37:50.127Z,9.98
2019-04-03T11:38:50.179Z,10.06
2019-04-03T11:40:01.322Z,10.09
2019-04-03T11:40:51.013Z,10.09
2019-04-03T11:41:50.027Z,10.04
2019-04-03T11:42:50.062Z,10.01
2019-04-03T11:43:50.071Z,9.92
2019-04-03T11:44:50.343Z,9.81
2019-04-03T11:45:49.980Z,9.70
2019-04-03T11:46:50.033Z,9.62
2019-04-03T11:47:50.145Z,9.49
2019-04-03T11:48:50.026Z,9.44
2019-04-03T11:49:52.369Z,9.31
2019-04-03T11:50:49.985Z,9.27
2019-04-03T11:51:49.933Z,9.19
2019-04-03T11:52:51.446Z,9.12
2019-04-03T11:53:50.010Z,8.96
2019-04-03T11:54:52.354Z,8.78
2019-04-03T11:55:49.856Z,8.67
2019-04-03T11:56:50.102Z,8.47
2019-04-03T11:57:50.526Z,8.32
2019-04-03T11:58:51.812Z,8.24
2019-04-03T11:59:50.174Z,8.14
2019-04-03T12:00:50.209Z,8.03
2019-04-03T12:01:50.059Z,7.95
2019-04-03T12:02:50.070Z,8.02
2019-04-03T12:03:51.482Z,8.12
2019-04-03T12:04:50.118Z,8.21
2019-04-03T12:05:49.752Z,8.42
2019-04-03T12:06:51.987Z,8.68
2019-04-03T12:07:50.117Z,8.98
2019-04-03T12:08:49.752Z,9.30
2019-04-03T12:09:49.710Z,9.60
2019-04-03T12:10:49.751Z,9.83
2019-04-03T12:11:49.773Z,9.93
2019-04-03T12:12:49.678Z,9.98
2019-04-03T12:13:49.688Z,9.91
2019-04-03T12:14:50.182Z,9.77
2019-04-03T12:15:52.215Z,9.55
2019-04-03T12:16:50.615Z,9.34
2019-04-03T12:17:49.754Z,9.27
2019-04-03T12:18:49.675Z,9.26
2019-04-03T12:19:49.857Z,9.24
2019-04-03T12:20:50.463Z,9.19
2019-04-03T12:21:50.842Z,9.15
2019-04-03T12:22:49.695Z,9.12
2019-04-03T12:23:49.674Z,9.08
2019-04-03T12:24:49.575Z,9.01
2019-04-03T12:25:49.543Z,9.01
2019-04-03T12:26:51.726Z,8.97
2019-04-03T12:27:49.513Z,8.91
2019-04-03T12:28:50.205Z,8.80
2019-04-03T12:29:49.708Z,8.67
2019-04-03T12:30:49.485Z,8.57
2019-04-03T12:31:49.471Z,8.42
2019-04-03T12:32:50.271Z,8.39
2019-04-03T12:33:56.473Z,8.29
2019-04-03T12:34:50.933Z,8.20
2019-04-03T12:35:49.545Z,8.06
2019-04-03T12:36:49.419Z,7.85
2019-04-03T12:37:50.166Z,7.81
2019-04-03T12:38:49.427Z,7.84
2019-04-03T12:39:49.418Z,7.81
2019-04-03T12:40:49.377Z,7.76
2019-04-03T12:41:49.375Z,7.76
2019-04-03T12:42:49.357Z,7.79
2019-04-03T12:43:49.981Z,7.74
2019-04-03T12:44:49.348Z,7.74
2019-04-03T12:45:49.375Z,7.71
2019-04-03T12:46:49.308Z,7.69
2019-04-03T12:47:49.316Z,7.66
2019-04-03T12:48:50.981Z,7.60
2019-04-03T12:49:49.275Z,7.57
2019-04-03T12:50:49.302Z,7.51
2019-04-03T12:51:49.261Z,7.48
2019-04-03T12:52:49.570Z,7.42
2019-04-03T12:53:49.242Z,7.29
2019-04-03T12:54:51.228Z,6.90
2019-04-03T12:55:49.307Z,6.58
2019-04-03T12:56:49.322Z,6.25
2019-04-03T12:57:49.537Z,6.01
2019-04-03T12:58:50.774Z,5.84
2019-04-03T12:59:49.171Z,5.67
2019-04-03T13:00:49.189Z,5.55
2019-04-03T13:01:50.157Z,5.49
2019-04-03T13:02:50.104Z,5.47
2019-04-03T13:03:49.329Z,5.49
2019-04-03T13:04:49.119Z,5.58
2019-04-03T13:05:49.293Z,5.60
2019-04-03T13:06:49.119Z,5.60
2019-04-03T13:07:49.084Z,5.59
2019-04-03T13:08:49.464Z,5.59
2019-04-03T13:09:49.079Z,5.58
2019-04-03T13:10:49.648Z,5.58
2019-04-03T13:11:50.487Z,5.58
2019-04-03T13:12:49.223Z,5.58
2019-04-03T13:13:49.306Z,5.59